• NOTAM LFNR

    Aucun NOTAM











  • PHOTOS SATELLITE

CARTE TEMSI

CARTE WINTEM

  • Vent en surface

  • Rafales en surface

  • ANIMATION RADAR

  • METAR/TAF LFML (MARSEILLE-PROVENCE)

    LFML 072030Z AUTO 33008KT CAVOK 04/01 Q1012 NOSIG

    TAF LFML 071400Z 0715/0821 32015KT CAVOK TX12/0812Z TN00/0804Z BECMG 0722/0724 10005KT TEMPO 0804/0809 RA BKN026 BECMG 0809/0810 3000 RA BKN015

    METAR/TAF LFMY

    LFMY 072030Z AUTO 34008KT CAVOK 03/00 Q1012

    TAF LFMY 071400Z 0715/0815 34012KT CAVOK TX12/0815Z TNM01/0804Z BECMG 0722/0724 05003KT TEMPO 0810/0815 8000 -RA BKN025

RESERVATION